sensor_id;sensor_type;location;lat;lon;timestamp;P1;durP1;ratioP1;P2;durP2;ratioP2
33858;SDS011;20156;47.486;12.074;2023-03-21T00:00:45;8.47;;;7.57;;
33858;SDS011;20156;47.486;12.074;2023-03-21T00:03:12;9.17;;;6.50;;
33858;SDS011;20156;47.486;12.074;2023-03-21T00:05:41;6.43;;;5.57;;
33858;SDS011;20156;47.486;12.074;2023-03-21T00:08:09;8.57;;;5.40;;
33858;SDS011;20156;47.486;12.074;2023-03-21T00:10:35;5.77;;;5.13;;
33858;SDS011;20156;47.486;12.074;2023-03-21T00:13:00;6.23;;;4.70;;
33858;SDS011;20156;47.486;12.074;2023-03-21T00:15:26;5.03;;;4.30;;
33858;SDS011;20156;47.486;12.074;2023-03-21T00:17:55;6.27;;;5.13;;
33858;SDS011;20156;47.486;12.074;2023-03-21T00:20:30;7.53;;;4.90;;
33858;SDS011;20156;47.486;12.074;2023-03-21T00:22:58;5.07;;;4.57;;
33858;SDS011;20156;47.486;12.074;2023-03-21T00:25:25;5.40;;;4.53;;
33858;SDS011;20156;47.486;12.074;2023-03-21T00:27:50;5.17;;;4.30;;
33858;SDS011;20156;47.486;12.074;2023-03-21T00:30:16;5.43;;;4.93;;
33858;SDS011;20156;47.486;12.074;2023-03-21T00:32:41;9.53;;;4.83;;
33858;SDS011;20156;47.486;12.074;2023-03-21T00:35:07;6.57;;;4.40;;
33858;SDS011;20156;47.486;12.074;2023-03-21T00:37:32;5.57;;;4.63;;
33858;SDS011;20156;47.486;12.074;2023-03-21T00:39:58;5.80;;;4.73;;
33858;SDS011;20156;47.486;12.074;2023-03-21T00:42:23;4.87;;;4.23;;
33858;SDS011;20156;47.486;12.074;2023-03-21T00:44:49;5.27;;;4.67;;
33858;SDS011;20156;47.486;12.074;2023-03-21T00:47:14;6.07;;;4.47;;
33858;SDS011;20156;47.486;12.074;2023-03-21T00:49:40;8.77;;;5.60;;
33858;SDS011;20156;47.486;12.074;2023-03-21T00:52:08;6.10;;;5.30;;
33858;SDS011;20156;47.486;12.074;2023-03-21T00:54:34;4.10;;;3.70;;
33858;SDS011;20156;47.486;12.074;2023-03-21T00:57:01;4.30;;;3.90;;
33858;SDS011;20156;47.486;12.074;2023-03-21T00:59:30;4.27;;;3.87;;
33858;SDS011;20156;47.486;12.074;2023-03-21T01:01:55;5.13;;;4.33;;
33858;SDS011;20156;47.486;12.074;2023-03-21T01:04:24;7.97;;;4.50;;
33858;SDS011;20156;47.486;12.074;2023-03-21T01:06:50;8.83;;;4.53;;
33858;SDS011;20156;47.486;12.074;2023-03-21T01:09:17;5.30;;;4.80;;
33858;SDS011;20156;47.486;12.074;2023-03-21T01:11:45;8.10;;;5.33;;
33858;SDS011;20156;47.486;12.074;2023-03-21T01:14:11;6.20;;;5.23;;
33858;SDS011;20156;47.486;12.074;2023-03-21T01:16:38;7.70;;;4.93;;
33858;SDS011;20156;47.486;12.074;2023-03-21T01:19:04;7.90;;;4.90;;
33858;SDS011;20156;47.486;12.074;2023-03-21T01:21:31;8.20;;;4.60;;
33858;SDS011;20156;47.486;12.074;2023-03-21T01:23:57;6.57;;;4.37;;
33858;SDS011;20156;47.486;12.074;2023-03-21T01:26:23;4.77;;;4.13;;
33858;SDS011;20156;47.486;12.074;2023-03-21T01:28:48;4.43;;;3.90;;
33858;SDS011;20156;47.486;12.074;2023-03-21T01:31:15;5.33;;;4.20;;
33858;SDS011;20156;47.486;12.074;2023-03-21T01:33:41;6.20;;;4.07;;
33858;SDS011;20156;47.486;12.074;2023-03-21T01:36:12;4.83;;;4.20;;
33858;SDS011;20156;47.486;12.074;2023-03-21T01:38:42;5.17;;;4.23;;
33858;SDS011;20156;47.486;12.074;2023-03-21T01:41:13;4.73;;;4.20;;
33858;SDS011;20156;47.486;12.074;2023-03-21T01:43:42;4.67;;;4.27;;
33858;SDS011;20156;47.486;12.074;2023-03-21T01:48:54;4.30;;;3.90;;
33858;SDS011;20156;47.486;12.074;2023-03-21T01:51:26;4.57;;;4.10;;
33858;SDS011;20156;47.486;12.074;2023-03-21T01:53:54;4.20;;;3.80;;
33858;SDS011;20156;47.486;12.074;2023-03-21T01:56:24;4.57;;;4.17;;
33858;SDS011;20156;47.486;12.074;2023-03-21T01:58:54;5.30;;;4.40;;
33858;SDS011;20156;47.486;12.074;2023-03-21T02:01:28;4.70;;;4.30;;
33858;SDS011;20156;47.486;12.074;2023-03-21T02:03:55;6.07;;;4.20;;
33858;SDS011;20156;47.486;12.074;2023-03-21T02:06:29;5.00;;;4.40;;
33858;SDS011;20156;47.486;12.074;2023-03-21T02:09:05;5.20;;;4.63;;
33858;SDS011;20156;47.486;12.074;2023-03-21T02:11:35;5.40;;;4.70;;
33858;SDS011;20156;47.486;12.074;2023-03-21T02:14:01;4.90;;;4.10;;
33858;SDS011;20156;47.486;12.074;2023-03-21T02:16:28;4.33;;;3.83;;
33858;SDS011;20156;47.486;12.074;2023-03-21T02:35:33;4.53;;;4.13;;
33858;SDS011;20156;47.486;12.074;2023-03-21T02:38:19;8.67;;;7.43;;
33858;SDS011;20156;47.486;12.074;2023-03-21T02:46:24;5.83;;;5.23;;
33858;SDS011;20156;47.486;12.074;2023-03-21T02:49:03;6.47;;;5.00;;
33858;SDS011;20156;47.486;12.074;2023-03-21T02:51:38;4.47;;;4.07;;
33858;SDS011;20156;47.486;12.074;2023-03-21T02:54:08;4.23;;;3.83;;
33858;SDS011;20156;47.486;12.074;2023-03-21T02:56:38;4.00;;;3.60;;
33858;SDS011;20156;47.486;12.074;2023-03-21T02:59:04;4.87;;;3.60;;
33858;SDS011;20156;47.486;12.074;2023-03-21T03:01:31;3.70;;;3.40;;
33858;SDS011;20156;47.486;12.074;2023-03-21T03:03:57;4.70;;;3.87;;
33858;SDS011;20156;47.486;12.074;2023-03-21T03:06:44;5.23;;;4.37;;
33858;SDS011;20156;47.486;12.074;2023-03-21T03:12:26;5.53;;;4.77;;
33858;SDS011;20156;47.486;12.074;2023-03-21T03:17:38;5.47;;;4.93;;
33858;SDS011;20156;47.486;12.074;2023-03-21T03:20:08;9.43;;;5.17;;
33858;SDS011;20156;47.486;12.074;2023-03-21T03:26:02;5.23;;;4.73;;
33858;SDS011;20156;47.486;12.074;2023-03-21T03:28:38;5.33;;;4.23;;
33858;SDS011;20156;47.486;12.074;2023-03-21T03:31:06;5.17;;;4.03;;
33858;SDS011;20156;47.486;12.074;2023-03-21T03:33:37;5.97;;;4.20;;
33858;SDS011;20156;47.486;12.074;2023-03-21T03:36:06;5.17;;;3.87;;
33858;SDS011;20156;47.486;12.074;2023-03-21T03:38:35;4.97;;;4.30;;
33858;SDS011;20156;47.486;12.074;2023-03-21T03:41:06;4.67;;;3.73;;
33858;SDS011;20156;47.486;12.074;2023-03-21T03:43:44;4.23;;;3.83;;
33858;SDS011;20156;47.486;12.074;2023-03-21T03:46:31;4.33;;;3.67;;
33858;SDS011;20156;47.486;12.074;2023-03-21T03:49:06;4.67;;;4.00;;
33858;SDS011;20156;47.486;12.074;2023-03-21T03:51:38;3.90;;;3.60;;
33858;SDS011;20156;47.486;12.074;2023-03-21T03:54:20;5.27;;;3.87;;
33858;SDS011;20156;47.486;12.074;2023-03-21T03:56:51;5.03;;;4.50;;
33858;SDS011;20156;47.486;12.074;2023-03-21T03:59:16;5.77;;;4.90;;
33858;SDS011;20156;47.486;12.074;2023-03-21T04:01:49;4.60;;;4.10;;
33858;SDS011;20156;47.486;12.074;2023-03-21T04:04:15;7.37;;;5.00;;
33858;SDS011;20156;47.486;12.074;2023-03-21T04:06:41;5.10;;;4.23;;
33858;SDS011;20156;47.486;12.074;2023-03-21T04:09:09;4.93;;;4.40;;
33858;SDS011;20156;47.486;12.074;2023-03-21T04:11:35;5.77;;;4.60;;
33858;SDS011;20156;47.486;12.074;2023-03-21T04:14:01;5.80;;;4.90;;
33858;SDS011;20156;47.486;12.074;2023-03-21T04:16:26;5.27;;;4.80;;
33858;SDS011;20156;47.486;12.074;2023-03-21T04:18:52;5.70;;;5.20;;
33858;SDS011;20156;47.486;12.074;2023-03-21T04:21:18;4.53;;;4.13;;
33858;SDS011;20156;47.486;12.074;2023-03-21T04:23:43;4.03;;;3.73;;
33858;SDS011;20156;47.486;12.074;2023-03-21T04:26:09;4.07;;;3.70;;
33858;SDS011;20156;47.486;12.074;2023-03-21T04:28:35;4.70;;;3.80;;
33858;SDS011;20156;47.486;12.074;2023-03-21T04:31:01;4.30;;;3.90;;
33858;SDS011;20156;47.486;12.074;2023-03-21T04:33:29;5.17;;;3.93;;
33858;SDS011;20156;47.486;12.074;2023-03-21T04:35:54;5.87;;;5.33;;
33858;SDS011;20156;47.486;12.074;2023-03-21T04:38:29;6.37;;;5.77;;
33858;SDS011;20156;47.486;12.074;2023-03-21T04:40:56;7.63;;;6.83;;
33858;SDS011;20156;47.486;12.074;2023-03-21T04:43:22;6.37;;;5.60;;
33858;SDS011;20156;47.486;12.074;2023-03-21T04:45:48;6.60;;;6.00;;
33858;SDS011;20156;47.486;12.074;2023-03-21T04:48:14;7.43;;;6.33;;
33858;SDS011;20156;47.486;12.074;2023-03-21T04:50:41;6.93;;;5.70;;
33858;SDS011;20156;47.486;12.074;2023-03-21T04:53:07;7.97;;;7.17;;
33858;SDS011;20156;47.486;12.074;2023-03-21T04:55:33;8.37;;;6.37;;
33858;SDS011;20156;47.486;12.074;2023-03-21T04:57:58;5.97;;;4.80;;
33858;SDS011;20156;47.486;12.074;2023-03-21T05:00:23;7.50;;;5.87;;
33858;SDS011;20156;47.486;12.074;2023-03-21T05:02:50;7.30;;;6.60;;
33858;SDS011;20156;47.486;12.074;2023-03-21T05:05:15;6.87;;;6.17;;
33858;SDS011;20156;47.486;12.074;2023-03-21T05:07:41;9.30;;;5.17;;
33858;SDS011;20156;47.486;12.074;2023-03-21T05:10:07;6.30;;;5.70;;
33858;SDS011;20156;47.486;12.074;2023-03-21T05:12:34;5.37;;;4.87;;
33858;SDS011;20156;47.486;12.074;2023-03-21T05:14:59;5.67;;;5.07;;
33858;SDS011;20156;47.486;12.074;2023-03-21T05:17:25;6.77;;;4.83;;
33858;SDS011;20156;47.486;12.074;2023-03-21T05:19:52;4.93;;;4.00;;
33858;SDS011;20156;47.486;12.074;2023-03-21T05:22:20;6.30;;;4.30;;
33858;SDS011;20156;47.486;12.074;2023-03-21T05:24:48;4.60;;;4.20;;
33858;SDS011;20156;47.486;12.074;2023-03-21T05:27:17;5.17;;;4.27;;
33858;SDS011;20156;47.486;12.074;2023-03-21T05:32:30;5.20;;;4.70;;
33858;SDS011;20156;47.486;12.074;2023-03-21T05:34:56;4.87;;;4.47;;
33858;SDS011;20156;47.486;12.074;2023-03-21T05:37:22;6.03;;;4.37;;
33858;SDS011;20156;47.486;12.074;2023-03-21T05:39:48;4.93;;;4.43;;
33858;SDS011;20156;47.486;12.074;2023-03-21T05:42:13;4.37;;;3.90;;
33858;SDS011;20156;47.486;12.074;2023-03-21T05:44:40;5.43;;;3.67;;
33858;SDS011;20156;47.486;12.074;2023-03-21T05:47:05;4.40;;;3.97;;
33858;SDS011;20156;47.486;12.074;2023-03-21T05:49:31;4.67;;;3.87;;
33858;SDS011;20156;47.486;12.074;2023-03-21T05:51:56;5.03;;;3.23;;
33858;SDS011;20156;47.486;12.074;2023-03-21T05:54:22;5.13;;;4.23;;
33858;SDS011;20156;47.486;12.074;2023-03-21T05:56:48;5.80;;;4.40;;
33858;SDS011;20156;47.486;12.074;2023-03-21T05:59:13;5.17;;;3.70;;
33858;SDS011;20156;47.486;12.074;2023-03-21T06:01:39;3.83;;;3.43;;
33858;SDS011;20156;47.486;12.074;2023-03-21T06:04:04;5.07;;;4.57;;
33858;SDS011;20156;47.486;12.074;2023-03-21T06:06:30;4.03;;;3.53;;
33858;SDS011;20156;47.486;12.074;2023-03-21T06:08:55;5.10;;;4.13;;
33858;SDS011;20156;47.486;12.074;2023-03-21T06:11:30;6.30;;;3.80;;
33858;SDS011;20156;47.486;12.074;2023-03-21T06:13:58;5.77;;;4.30;;
33858;SDS011;20156;47.486;12.074;2023-03-21T06:16:24;5.47;;;3.93;;
33858;SDS011;20156;47.486;12.074;2023-03-21T06:18:49;4.70;;;3.80;;
33858;SDS011;20156;47.486;12.074;2023-03-21T06:21:15;6.53;;;4.40;;
33858;SDS011;20156;47.486;12.074;2023-03-21T06:23:40;6.63;;;4.80;;
33858;SDS011;20156;47.486;12.074;2023-03-21T06:26:06;5.27;;;4.63;;
33858;SDS011;20156;47.486;12.074;2023-03-21T06:28:31;6.50;;;4.83;;
33858;SDS011;20156;47.486;12.074;2023-03-21T06:30:57;5.20;;;4.23;;
33858;SDS011;20156;47.486;12.074;2023-03-21T06:33:23;5.70;;;4.57;;
33858;SDS011;20156;47.486;12.074;2023-03-21T06:35:53;4.77;;;4.37;;
33858;SDS011;20156;47.486;12.074;2023-03-21T06:38:20;4.73;;;4.23;;
33858;SDS011;20156;47.486;12.074;2023-03-21T06:40:46;5.47;;;4.10;;
33858;SDS011;20156;47.486;12.074;2023-03-21T06:43:12;5.00;;;4.17;;
33858;SDS011;20156;47.486;12.074;2023-03-21T06:45:38;4.37;;;3.97;;
33858;SDS011;20156;47.486;12.074;2023-03-21T06:48:04;5.93;;;4.10;;
33858;SDS011;20156;47.486;12.074;2023-03-21T06:50:30;4.13;;;3.80;;
33858;SDS011;20156;47.486;12.074;2023-03-21T06:52:55;11.07;;;4.10;;
33858;SDS011;20156;47.486;12.074;2023-03-21T06:55:24;4.43;;;3.77;;
33858;SDS011;20156;47.486;12.074;2023-03-21T06:57:54;4.20;;;3.80;;
33858;SDS011;20156;47.486;12.074;2023-03-21T07:00:20;4.30;;;3.93;;
33858;SDS011;20156;47.486;12.074;2023-03-21T07:02:47;5.03;;;4.17;;
33858;SDS011;20156;47.486;12.074;2023-03-21T07:05:13;4.33;;;3.90;;
33858;SDS011;20156;47.486;12.074;2023-03-21T07:07:39;4.40;;;4.00;;
33858;SDS011;20156;47.486;12.074;2023-03-21T07:10:05;4.73;;;4.30;;
33858;SDS011;20156;47.486;12.074;2023-03-21T07:12:31;6.87;;;4.17;;
33858;SDS011;20156;47.486;12.074;2023-03-21T07:15:00;5.23;;;4.73;;
33858;SDS011;20156;47.486;12.074;2023-03-21T07:17:26;5.47;;;4.57;;
33858;SDS011;20156;47.486;12.074;2023-03-21T07:19:51;6.27;;;4.20;;
33858;SDS011;20156;47.486;12.074;2023-03-21T07:22:17;5.90;;;4.72;;
33858;SDS011;20156;47.486;12.074;2023-03-21T07:24:43;4.70;;;4.25;;
33858;SDS011;20156;47.486;12.074;2023-03-21T07:27:12;4.90;;;4.40;;
33858;SDS011;20156;47.486;12.074;2023-03-21T07:29:38;6.80;;;4.20;;
33858;SDS011;20156;47.486;12.074;2023-03-21T07:32:03;5.88;;;4.20;;
33858;SDS011;20156;47.486;12.074;2023-03-21T07:34:29;5.55;;;3.42;;
33858;SDS011;20156;47.486;12.074;2023-03-21T07:36:57;7.10;;;4.00;;
33858;SDS011;20156;47.486;12.074;2023-03-21T07:39:24;4.70;;;4.25;;
33858;SDS011;20156;47.486;12.074;2023-03-21T07:41:51;6.18;;;4.97;;
33858;SDS011;20156;47.486;12.074;2023-03-21T07:44:16;7.07;;;4.93;;
33858;SDS011;20156;47.486;12.074;2023-03-21T07:46:42;5.93;;;4.90;;
33858;SDS011;20156;47.486;12.074;2023-03-21T07:49:07;4.90;;;4.40;;
33858;SDS011;20156;47.486;12.074;2023-03-21T07:51:33;7.03;;;5.18;;
33858;SDS011;20156;47.486;12.074;2023-03-21T07:53:59;8.15;;;5.38;;
33858;SDS011;20156;47.486;12.074;2023-03-21T07:56:26;9.65;;;6.47;;
33858;SDS011;20156;47.486;12.074;2023-03-21T07:58:52;8.77;;;7.97;;
33858;SDS011;20156;47.486;12.074;2023-03-21T08:01:17;21.75;;;19.85;;
33858;SDS011;20156;47.486;12.074;2023-03-21T08:03:43;18.50;;;16.83;;
33858;SDS011;20156;47.486;12.074;2023-03-21T08:06:09;27.27;;;25.17;;
33858;SDS011;20156;47.486;12.074;2023-03-21T08:08:35;16.85;;;15.25;;
33858;SDS011;20156;47.486;12.074;2023-03-21T08:11:02;13.35;;;11.25;;
33858;SDS011;20156;47.486;12.074;2023-03-21T08:13:28;12.43;;;8.40;;
33858;SDS011;20156;47.486;12.074;2023-03-21T08:15:54;18.83;;;16.60;;
33858;SDS011;20156;47.486;12.074;2023-03-21T08:18:19;10.93;;;7.43;;
33858;SDS011;20156;47.486;12.074;2023-03-21T08:20:45;7.22;;;5.68;;
33858;SDS011;20156;47.486;12.074;2023-03-21T08:23:10;11.68;;;5.97;;
33858;SDS011;20156;47.486;12.074;2023-03-21T08:25:36;9.90;;;6.03;;
33858;SDS011;20156;47.486;12.074;2023-03-21T08:28:02;10.35;;;6.15;;
33858;SDS011;20156;47.486;12.074;2023-03-21T08:30:28;11.75;;;5.88;;
33858;SDS011;20156;47.486;12.074;2023-03-21T08:32:59;9.98;;;6.93;;
33858;SDS011;20156;47.486;12.074;2023-03-21T08:35:25;10.27;;;6.75;;
33858;SDS011;20156;47.486;12.074;2023-03-21T08:37:51;9.98;;;5.95;;
33858;SDS011;20156;47.486;12.074;2023-03-21T08:40:17;11.63;;;5.88;;
33858;SDS011;20156;47.486;12.074;2023-03-21T08:42:43;11.07;;;6.28;;
33858;SDS011;20156;47.486;12.074;2023-03-21T08:45:11;10.35;;;6.90;;
33858;SDS011;20156;47.486;12.074;2023-03-21T08:47:37;8.45;;;6.30;;
33858;SDS011;20156;47.486;12.074;2023-03-21T08:50:04;7.30;;;5.38;;
33858;SDS011;20156;47.486;12.074;2023-03-21T08:52:31;9.05;;;5.95;;
33858;SDS011;20156;47.486;12.074;2023-03-21T08:54:56;7.90;;;6.38;;
33858;SDS011;20156;47.486;12.074;2023-03-21T08:57:22;9.38;;;6.55;;
33858;SDS011;20156;47.486;12.074;2023-03-21T08:59:48;8.55;;;5.18;;
33858;SDS011;20156;47.486;12.074;2023-03-21T09:02:16;7.55;;;5.03;;
33858;SDS011;20156;47.486;12.074;2023-03-21T09:04:42;6.70;;;5.00;;
33858;SDS011;20156;47.486;12.074;2023-03-21T09:07:09;7.88;;;7.07;;
33858;SDS011;20156;47.486;12.074;2023-03-21T09:09:36;8.05;;;4.80;;
33858;SDS011;20156;47.486;12.074;2023-03-21T09:12:02;4.85;;;4.22;;
33858;SDS011;20156;47.486;12.074;2023-03-21T09:14:28;5.05;;;4.57;;
33858;SDS011;20156;47.486;12.074;2023-03-21T09:16:53;7.90;;;4.82;;
33858;SDS011;20156;47.486;12.074;2023-03-21T09:19:20;7.10;;;4.70;;
33858;SDS011;20156;47.486;12.074;2023-03-21T09:21:45;5.80;;;4.22;;
33858;SDS011;20156;47.486;12.074;2023-03-21T09:24:11;5.38;;;4.18;;
33858;SDS011;20156;47.486;12.074;2023-03-21T09:26:37;7.00;;;4.40;;
33858;SDS011;20156;47.486;12.074;2023-03-21T09:29:03;5.03;;;4.13;;
33858;SDS011;20156;47.486;12.074;2023-03-21T09:31:30;5.80;;;4.30;;
33858;SDS011;20156;47.486;12.074;2023-03-21T09:33:55;7.40;;;5.95;;
33858;SDS011;20156;47.486;12.074;2023-03-21T09:36:23;9.23;;;4.90;;
33858;SDS011;20156;47.486;12.074;2023-03-21T09:38:51;4.85;;;4.40;;
33858;SDS011;20156;47.486;12.074;2023-03-21T09:44:10;8.63;;;5.25;;
33858;SDS011;20156;47.486;12.074;2023-03-21T09:49:15;6.18;;;5.40;;
33858;SDS011;20156;47.486;12.074;2023-03-21T09:51:46;7.60;;;4.85;;
33858;SDS011;20156;47.486;12.074;2023-03-21T09:54:25;6.43;;;4.55;;
33858;SDS011;20156;47.486;12.074;2023-03-21T09:56:58;5.30;;;4.28;;
33858;SDS011;20156;47.486;12.074;2023-03-21T09:59:33;7.93;;;4.65;;
33858;SDS011;20156;47.486;12.074;2023-03-21T10:02:47;5.50;;;4.28;;
33858;SDS011;20156;47.486;12.074;2023-03-21T10:05:05;7.90;;;4.43;;
33858;SDS011;20156;47.486;12.074;2023-03-21T10:07:51;6.03;;;4.10;;
33858;SDS011;20156;47.486;12.074;2023-03-21T10:10:24;5.72;;;4.18;;
33858;SDS011;20156;47.486;12.074;2023-03-21T10:12:54;5.28;;;4.35;;
33858;SDS011;20156;47.486;12.074;2023-03-21T10:15:22;10.00;;;4.57;;
33858;SDS011;20156;47.486;12.074;2023-03-21T10:17:54;7.80;;;4.90;;
33858;SDS011;20156;47.486;12.074;2023-03-21T10:20:25;5.45;;;4.75;;
33858;SDS011;20156;47.486;12.074;2023-03-21T10:22:55;6.00;;;4.97;;
33858;SDS011;20156;47.486;12.074;2023-03-21T10:25:35;6.00;;;4.55;;
33858;SDS011;20156;47.486;12.074;2023-03-21T10:28:05;5.88;;;4.25;;
33858;SDS011;20156;47.486;12.074;2023-03-21T10:33:36;8.55;;;4.80;;
33858;SDS011;20156;47.486;12.074;2023-03-21T10:38:32;5.95;;;4.70;;
33858;SDS011;20156;47.486;12.074;2023-03-21T10:40:58;5.68;;;3.75;;
33858;SDS011;20156;47.486;12.074;2023-03-21T10:45:52;4.22;;;3.78;;
33858;SDS011;20156;47.486;12.074;2023-03-21T10:48:19;4.32;;;3.92;;
33858;SDS011;20156;47.486;12.074;2023-03-21T10:50:46;5.13;;;3.67;;
33858;SDS011;20156;47.486;12.074;2023-03-21T10:53:16;5.05;;;3.80;;
33858;SDS011;20156;47.486;12.074;2023-03-21T10:55:44;5.90;;;4.28;;
33858;SDS011;20156;47.486;12.074;2023-03-21T10:58:17;3.65;;;3.35;;
33858;SDS011;20156;47.486;12.074;2023-03-21T11:00:51;5.07;;;3.75;;
33858;SDS011;20156;47.486;12.074;2023-03-21T11:03:31;4.35;;;3.97;;
33858;SDS011;20156;47.486;12.074;2023-03-21T11:06:43;4.82;;;3.90;;
33858;SDS011;20156;47.486;12.074;2023-03-21T11:08:55;4.63;;;3.83;;
33858;SDS011;20156;47.486;12.074;2023-03-21T11:11:39;4.72;;;3.75;;
33858;SDS011;20156;47.486;12.074;2023-03-21T11:14:26;4.45;;;3.80;;
33858;SDS011;20156;47.486;12.074;2023-03-21T11:19:51;5.13;;;3.42;;
33858;SDS011;20156;47.486;12.074;2023-03-21T11:22:30;5.60;;;3.63;;
33858;SDS011;20156;47.486;12.074;2023-03-21T11:25:04;5.03;;;3.60;;
33858;SDS011;20156;47.486;12.074;2023-03-21T11:27:33;3.92;;;3.53;;
33858;SDS011;20156;47.486;12.074;2023-03-21T11:30:00;3.70;;;3.40;;
33858;SDS011;20156;47.486;12.074;2023-03-21T11:34:59;4.68;;;3.70;;
33858;SDS011;20156;47.486;12.074;2023-03-21T11:37:41;4.55;;;3.97;;
33858;SDS011;20156;47.486;12.074;2023-03-21T11:45:23;4.15;;;3.70;;
33858;SDS011;20156;47.486;12.074;2023-03-21T11:47:52;4.22;;;3.92;;
33858;SDS011;20156;47.486;12.074;2023-03-21T11:52:57;4.30;;;3.90;;
33858;SDS011;20156;47.486;12.074;2023-03-21T12:01:03;4.30;;;3.42;;
33858;SDS011;20156;47.486;12.074;2023-03-21T12:09:06;4.15;;;2.70;;
33858;SDS011;20156;47.486;12.074;2023-03-21T12:20:38;4.20;;;3.10;;
33858;SDS011;20156;47.486;12.074;2023-03-21T12:26:46;3.72;;;3.05;;
33858;SDS011;20156;47.486;12.074;2023-03-21T12:32:14;3.30;;;2.85;;
33858;SDS011;20156;47.486;12.074;2023-03-21T12:34:56;3.80;;;2.70;;
33858;SDS011;20156;47.486;12.074;2023-03-21T12:37:55;3.72;;;2.53;;
33858;SDS011;20156;47.486;12.074;2023-03-21T12:43:27;4.15;;;2.80;;
33858;SDS011;20156;47.486;12.074;2023-03-21T12:48:59;3.70;;;2.90;;
33858;SDS011;20156;47.486;12.074;2023-03-21T12:51:28;2.88;;;2.67;;
33858;SDS011;20156;47.486;12.074;2023-03-21T12:53:59;2.85;;;2.45;;
33858;SDS011;20156;47.486;12.074;2023-03-21T12:56:33;3.40;;;3.10;;
33858;SDS011;20156;47.486;12.074;2023-03-21T13:01:42;3.10;;;2.90;;
33858;SDS011;20156;47.486;12.074;2023-03-21T13:06:59;2.97;;;2.70;;
33858;SDS011;20156;47.486;12.074;2023-03-21T13:09:32;3.72;;;2.97;;
33858;SDS011;20156;47.486;12.074;2023-03-21T13:12:11;2.95;;;2.70;;
33858;SDS011;20156;47.486;12.074;2023-03-21T13:14:46;3.70;;;2.60;;
33858;SDS011;20156;47.486;12.074;2023-03-21T13:17:34;3.05;;;2.78;;
33858;SDS011;20156;47.486;12.074;2023-03-21T13:20:13;2.60;;;2.40;;
33858;SDS011;20156;47.486;12.074;2023-03-21T13:23:00;3.13;;;2.45;;
33858;SDS011;20156;47.486;12.074;2023-03-21T13:25:28;2.78;;;2.58;;
33858;SDS011;20156;47.486;12.074;2023-03-21T13:28:00;2.22;;;2.00;;
33858;SDS011;20156;47.486;12.074;2023-03-21T13:30:29;2.30;;;2.10;;
33858;SDS011;20156;47.486;12.074;2023-03-21T13:33:15;4.28;;;2.40;;
33858;SDS011;20156;47.486;12.074;2023-03-21T13:35:53;2.80;;;2.35;;
33858;SDS011;20156;47.486;12.074;2023-03-21T13:38:29;2.50;;;2.30;;
33858;SDS011;20156;47.486;12.074;2023-03-21T13:40:58;2.85;;;2.30;;
33858;SDS011;20156;47.486;12.074;2023-03-21T13:53:59;3.42;;;2.92;;
33858;SDS011;20156;47.486;12.074;2023-03-21T13:56:27;3.85;;;2.70;;
33858;SDS011;20156;47.486;12.074;2023-03-21T13:59:00;4.45;;;3.28;;
33858;SDS011;20156;47.486;12.074;2023-03-21T14:04:15;3.35;;;2.97;;
33858;SDS011;20156;47.486;12.074;2023-03-21T14:07:02;3.13;;;2.90;;
33858;SDS011;20156;47.486;12.074;2023-03-21T14:09:36;4.32;;;3.92;;
33858;SDS011;20156;47.486;12.074;2023-03-21T14:12:06;4.57;;;4.18;;
33858;SDS011;20156;47.486;12.074;2023-03-21T14:14:39;6.45;;;4.35;;
33858;SDS011;20156;47.486;12.074;2023-03-21T14:17:12;6.03;;;4.25;;
33858;SDS011;20156;47.486;12.074;2023-03-21T14:19:38;6.97;;;4.78;;
33858;SDS011;20156;47.486;12.074;2023-03-21T14:22:08;7.70;;;5.40;;
33858;SDS011;20156;47.486;12.074;2023-03-21T14:24:35;5.90;;;5.00;;
33858;SDS011;20156;47.486;12.074;2023-03-21T14:27:00;5.00;;;3.88;;
33858;SDS011;20156;47.486;12.074;2023-03-21T14:29:29;4.15;;;2.75;;
33858;SDS011;20156;47.486;12.074;2023-03-21T14:31:57;8.27;;;4.05;;
33858;SDS011;20156;47.486;12.074;2023-03-21T14:34:25;5.70;;;4.00;;
33858;SDS011;20156;47.486;12.074;2023-03-21T14:36:52;4.53;;;3.63;;
33858;SDS011;20156;47.486;12.074;2023-03-21T14:39:22;7.00;;;3.67;;
33858;SDS011;20156;47.486;12.074;2023-03-21T14:41:52;6.47;;;3.80;;
33858;SDS011;20156;47.486;12.074;2023-03-21T14:47:00;6.55;;;3.45;;
33858;SDS011;20156;47.486;12.074;2023-03-21T14:49:29;5.63;;;3.47;;
33858;SDS011;20156;47.486;12.074;2023-03-21T14:52:06;4.75;;;3.63;;
33858;SDS011;20156;47.486;12.074;2023-03-21T14:54:38;3.80;;;2.95;;
33858;SDS011;20156;47.486;12.074;2023-03-21T14:57:06;3.58;;;3.00;;
33858;SDS011;20156;47.486;12.074;2023-03-21T14:59:36;9.43;;;3.25;;
33858;SDS011;20156;47.486;12.074;2023-03-21T15:02:04;4.78;;;3.40;;
33858;SDS011;20156;47.486;12.074;2023-03-21T15:04:39;4.20;;;3.20;;
33858;SDS011;20156;47.486;12.074;2023-03-21T15:07:05;4.53;;;3.47;;
33858;SDS011;20156;47.486;12.074;2023-03-21T15:09:32;4.85;;;3.40;;
33858;SDS011;20156;47.486;12.074;2023-03-21T15:11:59;6.88;;;3.97;;
33858;SDS011;20156;47.486;12.074;2023-03-21T15:14:27;7.13;;;3.47;;
33858;SDS011;20156;47.486;12.074;2023-03-21T15:16:58;7.40;;;3.35;;
33858;SDS011;20156;47.486;12.074;2023-03-21T15:19:33;7.30;;;3.30;;
33858;SDS011;20156;47.486;12.074;2023-03-21T15:22:06;6.07;;;3.53;;
33858;SDS011;20156;47.486;12.074;2023-03-21T15:24:38;3.35;;;2.90;;
33858;SDS011;20156;47.486;12.074;2023-03-21T15:27:12;5.78;;;3.10;;
33858;SDS011;20156;47.486;12.074;2023-03-21T15:29:41;6.85;;;3.05;;
33858;SDS011;20156;47.486;12.074;2023-03-21T15:32:18;7.78;;;3.05;;
33858;SDS011;20156;47.486;12.074;2023-03-21T15:34:47;5.70;;;3.15;;
33858;SDS011;20156;47.486;12.074;2023-03-21T15:37:15;5.07;;;3.40;;
33858;SDS011;20156;47.486;12.074;2023-03-21T15:39:44;4.43;;;3.33;;
33858;SDS011;20156;47.486;12.074;2023-03-21T15:44:46;5.50;;;3.08;;
33858;SDS011;20156;47.486;12.074;2023-03-21T15:47:15;6.25;;;3.35;;
33858;SDS011;20156;47.486;12.074;2023-03-21T15:49:59;6.47;;;3.20;;
33858;SDS011;20156;47.486;12.074;2023-03-21T15:52:35;9.45;;;3.15;;
33858;SDS011;20156;47.486;12.074;2023-03-21T15:55:01;10.07;;;3.30;;
33858;SDS011;20156;47.486;12.074;2023-03-21T15:57:41;8.88;;;3.45;;
33858;SDS011;20156;47.486;12.074;2023-03-21T16:02:43;4.72;;;2.88;;
33858;SDS011;20156;47.486;12.074;2023-03-21T16:05:23;4.38;;;3.00;;
33858;SDS011;20156;47.486;12.074;2023-03-21T16:07:59;8.20;;;3.15;;
33858;SDS011;20156;47.486;12.074;2023-03-21T16:10:29;4.05;;;3.33;;
33858;SDS011;20156;47.486;12.074;2023-03-21T16:12:57;5.05;;;3.00;;
33858;SDS011;20156;47.486;12.074;2023-03-21T16:15:23;5.45;;;2.80;;
33858;SDS011;20156;47.486;12.074;2023-03-21T16:17:51;4.55;;;2.70;;
33858;SDS011;20156;47.486;12.074;2023-03-21T16:20:21;4.13;;;2.67;;
33858;SDS011;20156;47.486;12.074;2023-03-21T16:22:48;2.97;;;2.10;;
33858;SDS011;20156;47.486;12.074;2023-03-21T16:25:14;2.08;;;1.88;;
33858;SDS011;20156;47.486;12.074;2023-03-21T16:27:40;1.77;;;1.65;;
33858;SDS011;20156;47.486;12.074;2023-03-21T16:30:06;2.60;;;1.70;;
33858;SDS011;20156;47.486;12.074;2023-03-21T16:32:33;5.28;;;1.70;;
33858;SDS011;20156;47.486;12.074;2023-03-21T16:34:59;1.55;;;1.40;;
33858;SDS011;20156;47.486;12.074;2023-03-21T16:37:25;2.25;;;1.40;;
33858;SDS011;20156;47.486;12.074;2023-03-21T16:39:51;4.13;;;1.30;;
33858;SDS011;20156;47.486;12.074;2023-03-21T16:42:16;1.65;;;1.50;;
33858;SDS011;20156;47.486;12.074;2023-03-21T16:44:41;2.63;;;1.45;;
33858;SDS011;20156;47.486;12.074;2023-03-21T16:47:20;5.38;;;1.67;;